Time;durP1;ratioP1;P1;durP2;ratioP2;P2;SDS_P1;SDS_P2;PMS_P1;PMS_P2;Temp;Humidity;BMP_temperature;BMP_pressure;BME280_temperature;BME280_humidity;BME280_pressure;Samples;Min_cycle;Max_cycle;Signal;HPM_P1;HPM_P2
2023/09/24 00:04:01;;;;;;;7.20;5.07;;;;;;;15.67;100.00;100766.56;10292296;28;20446;-74
2023/09/24 00:09:03;;;;;;;7.55;5.38;;;;;;;16.06;100.00;100843.03;10291698;28;20518;-76
2023/09/24 00:14:04;;;;;;;8.55;5.05;;;;;;;15.69;100.00;100778.78;10290986;28;20418;-75
2023/09/24 00:19:05;;;;;;;8.25;5.28;;;;;;;15.86;100.00;100798.13;10290882;28;20062;-75
2023/09/24 00:24:07;;;;;;;9.82;5.15;;;;;;;15.83;100.00;100793.16;10291479;28;20070;-75
2023/09/24 00:29:10;;;;;;;11.23;5.65;;;;;;;16.04;100.00;100818.28;10294301;28;20069;-75
2023/09/24 00:34:11;;;;;;;8.07;4.82;;;;;;;16.07;100.00;100824.09;10298739;28;20137;-75
2023/09/24 00:39:13;;;;;;;11.43;5.30;;;;;;;16.05;100.00;100822.63;10281816;28;20058;-75
2023/09/24 00:44:14;;;;;;;7.40;5.25;;;;;;;15.98;100.00;100828.75;10281047;28;20054;-76
2023/09/24 00:49:15;;;;;;;9.10;5.07;;;;;;;15.59;100.00;100769.41;10299579;28;20047;-75
2023/09/24 00:54:17;;;;;;;9.23;5.63;;;;;;;15.85;100.00;100815.19;10298521;28;20073;-75
2023/09/24 00:59:18;;;;;;;12.15;5.82;;;;;;;15.83;100.00;100816.44;10297758;28;20093;-75
2023/09/24 01:04:19;;;;;;;9.95;5.75;;;;;;;15.81;100.00;100805.91;10297832;28;20047;-75
2023/09/24 01:09:20;;;;;;;8.68;5.18;;;;;;;15.79;100.00;100807.09;10297953;28;20043;-75
2023/09/24 01:14:21;;;;;;;8.43;5.45;;;;;;;15.80;100.00;100800.75;10297126;28;20051;-75
2023/09/24 01:19:23;;;;;;;9.38;5.90;;;;;;;15.42;100.00;100747.38;10297764;28;20086;-75
2023/09/24 01:24:27;;;;;;;11.02;5.43;;;;;;;15.58;100.00;100778.44;10296913;28;20070;-75
2023/09/24 01:29:27;;;;;;;9.65;6.32;;;;;;;15.35;100.00;100747.31;10296862;28;20059;-75
2023/09/24 01:34:28;;;;;;;7.68;5.68;;;;;;;15.55;100.00;100789.53;10297009;28;20059;-75
2023/09/24 01:39:32;;;;;;;8.30;5.53;;;;;;;15.29;100.00;100737.38;10296439;28;20057;-75
2023/09/24 01:44:33;;;;;;;9.38;6.13;;;;;;;15.71;100.00;100795.50;10296707;28;20419;-75
2023/09/24 01:49:34;;;;;;;18.80;6.25;;;;;;;15.77;100.00;100787.72;10296509;28;20062;-75
2023/09/24 01:54:34;;;;;;;11.77;6.50;;;;;;;15.85;100.00;100791.09;10296527;28;20105;-75
2023/09/24 01:59:35;;;;;;;9.65;6.05;;;;;;;15.72;100.00;100756.97;10296163;28;20046;-75
2023/09/24 02:04:37;;;;;;;9.98;6.80;;;;;;;15.61;100.00;100724.50;10296027;28;20054;-75
2023/09/24 02:09:38;;;;;;;7.35;5.38;;;;;;;16.13;100.00;100809.09;10295276;28;20110;-75
2023/09/24 02:14:39;;;;;;;7.85;5.80;;;;;;;15.68;100.00;100734.28;10277994;28;20454;-74
2023/09/24 02:19:41;;;;;;;12.23;6.13;;;;;;;15.73;100.00;100734.56;10294774;28;20094;-74
2023/09/24 02:24:43;;;;;;;9.43;5.90;;;;;;;15.92;100.00;100767.06;10295268;28;20081;-74
2023/09/24 02:29:48;;;;;;;36.58;7.97;;;;;;;15.59;100.00;100705.94;10294421;28;20054;-75
2023/09/24 02:34:48;;;;;;;;;;;;;;;16.36;100.00;100814.22;10295171;28;20146;-75
2023/09/24 02:39:49;;;;;;;11.93;5.53;;;;;;;16.06;100.00;100784.06;10277451;28;20334;-74
2023/09/24 02:44:50;;;;;;;11.60;5.85;;;;;;;15.93;100.00;100756.13;10276479;28;20122;-75
2023/09/24 02:49:51;;;;;;;13.18;5.95;;;;;;;16.19;100.00;100797.59;10293400;28;20047;-75
2023/09/24 02:54:51;;;;;;;27.48;7.53;;;;;;;16.25;100.00;100804.03;10293998;28;20055;-74
2023/09/24 02:59:52;;;;;;;17.38;6.53;;;;;;;16.31;100.00;100805.94;10301315;28;20104;-74
2023/09/24 03:04:53;;;;;;;18.95;6.32;;;;;;;16.29;100.00;100800.75;10333739;28;20093;-74
2023/09/24 03:09:55;;;;;;;14.52;6.00;;;;;;;16.34;100.00;100806.38;10316942;28;20078;-74
2023/09/24 03:14:56;;;;;;;13.00;6.05;;;;;;;16.44;100.00;100809.53;10293297;28;20113;-75
2023/09/24 03:19:59;;;;;;;12.85;5.95;;;;;;;16.43;100.00;100805.19;10292441;28;20083;-75
2023/09/24 03:25:00;;;;;;;19.15;6.93;;;;;;;16.16;100.00;100753.25;10292367;28;20080;-74
2023/09/24 03:30:02;;;;;;;8.73;5.18;;;;;;;16.50;100.00;100767.69;10292664;28;20051;-74
2023/09/24 03:35:08;;;;;;;14.55;6.03;;;;;;;16.42;100.00;100720.44;10292340;28;20046;-75
2023/09/24 03:40:19;;;;;;;16.75;5.93;;;;;;;17.03;100.00;100804.78;10292539;28;20113;-75
2023/09/24 03:45:24;;;;;;;8.45;5.25;;;;;;;16.99;100.00;100784.72;10292188;28;20046;-74
2023/09/24 03:50:26;;;;;;;13.90;5.53;;;;;;;16.99;100.00;100757.88;10293141;28;20093;-74
2023/09/24 03:55:27;;;;;;;27.13;6.20;;;;;;;17.53;100.00;100792.78;10290214;28;20054;-75
2023/09/24 04:00:31;;;;;;;11.07;5.32;;;;;;;17.70;100.00;100736.78;10291167;28;20506;-76
2023/09/24 04:05:33;;;;;;;15.87;5.27;;;;;;;18.68;96.93;100798.81;10314692;28;20419;-77
2023/09/24 04:10:34;;;;;;;12.98;4.90;;;;;;;19.20;95.11;100806.97;10326765;28;20506;-76
2023/09/24 04:15:35;;;;;;;9.20;4.93;;;;;;;19.27;92.66;100788.13;10316235;28;20050;-75
2023/09/24 04:20:36;;;;;;;21.65;5.53;;;;;;;19.16;91.42;100766.19;10290797;28;20087;-75
2023/09/24 04:25:38;;;;;;;16.20;5.13;;;;;;;19.49;90.07;100843.31;10291769;28;20054;-76
2023/09/24 04:30:38;;;;;;;11.55;4.05;;;;;;;19.24;88.78;100769.69;10290730;28;20054;-75
2023/09/24 04:35:40;;;;;;;9.75;4.38;;;;;;;19.35;89.26;100821.03;10290795;28;20054;-75
2023/09/24 04:40:42;;;;;;;9.05;4.05;;;;;;;19.20;89.70;100828.53;10290445;28;20058;-75
2023/09/24 04:45:42;;;;;;;9.02;4.47;;;;;;;19.33;89.43;100846.53;10291018;28;20072;-75
2023/09/24 04:50:43;;;;;;;15.35;4.65;;;;;;;19.11;89.42;100801.00;10289035;28;20216;-75
2023/09/24 04:55:44;;;;;;;9.02;4.28;;;;;;;19.20;89.14;100804.28;10290967;28;20062;-76
2023/09/24 05:00:45;;;;;;;12.30;4.20;;;;;;;19.61;88.00;100824.63;10291522;28;20129;-75
2023/09/24 05:05:46;;;;;;;14.65;4.22;;;;;;;19.59;86.28;100725.13;10291111;28;20092;-75
2023/09/24 05:10:46;;;;;;;9.68;4.05;;;;;;;20.08;85.34;100787.44;10290413;28;20047;-78
2023/09/24 05:15:53;;;;;;;5.45;3.72;;;;;;;20.81;83.16;100842.63;10294095;28;20137;-75
2023/09/24 05:20:55;;;;;;;11.13;4.00;;;;;;;21.14;81.51;100834.16;10303006;28;20056;-80
2023/09/24 05:25:56;;;;;;;20.00;4.22;;;;;;;21.06;80.82;100810.13;10301575;28;20062;-85
2023/09/24 05:30:57;;;;;;;8.20;3.95;;;;;;;21.69;79.59;100844.94;10285426;28;20511;-86
2023/09/24 05:35:58;;;;;;;9.85;3.88;;;;;;;22.08;78.25;100848.94;10288130;28;20527;-87
2023/09/24 05:40:59;;;;;;;13.77;4.20;;;;;;;22.10;76.69;100791.88;10290706;28;20047;-77
2023/09/24 05:46:01;;;;;;;10.63;4.00;;;;;;;22.41;75.98;100844.91;10277875;28;20055;-79
2023/09/24 05:51:03;;;;;;;8.70;4.13;;;;;;;22.37;75.85;100842.88;10296124;28;20508;-88
2023/09/24 05:56:04;;;;;;;8.50;3.80;;;;;;;22.14;75.26;100812.00;10310873;28;20089;-87
2023/09/24 06:01:05;;;;;;;20.30;5.03;;;;;;;21.62;75.80;100784.72;10317658;28;20514;-78
2023/09/24 06:06:09;;;;;;;9.48;4.18;;;;;;;21.42;75.69;100793.94;10298720;28;20422;-77
2023/09/24 06:11:10;;;;;;;;;;;;;;;22.06;75.33;100859.16;10295618;28;20058;-79
2023/09/24 06:16:10;;;;;;;17.13;4.70;;;;;;;22.04;75.13;100834.19;10295177;28;20344;-78
2023/09/24 06:21:18;;;;;;;9.13;3.88;;;;;;;22.08;73.75;100796.72;10294689;28;20141;-78
2023/09/24 06:26:20;;;;;;;10.35;3.90;;;;;;;22.14;73.89;100803.91;10294316;28;20082;-79
2023/09/24 06:31:21;;;;;;;12.05;4.20;;;;;;;22.73;72.08;100776.84;10278025;28;20108;-82
2023/09/24 06:36:21;;;;;;;9.23;4.20;;;;;;;23.40;70.62;100822.41;10276936;28;20457;-77
2023/09/24 06:41:23;;;;;;;9.52;4.68;;;;;;;23.28;70.00;100756.59;10294927;28;20039;-80
2023/09/24 06:46:23;;;;;;;9.35;4.38;;;;;;;23.35;69.89;100812.28;10294552;28;20050;-78
2023/09/24 06:51:24;;;;;;;12.55;4.50;;;;;;;23.93;68.12;100837.53;10293891;28;20137;-77
2023/09/24 06:56:25;;;;;;;15.90;4.28;;;;;;;23.23;67.10;100712.03;10276804;28;20503;-77
2023/09/24 07:01:26;;;;;;;12.63;4.82;;;;;;;24.13;65.74;100764.59;10293805;28;20057;-80
2023/09/24 07:06:27;;;;;;;29.00;5.43;;;;;;;24.43;64.22;100751.75;10293114;28;20510;-80
2023/09/24 07:11:33;;;;;;;8.63;3.90;;;;;;;24.80;62.89;100811.78;10293840;28;20065;-79
2023/09/24 07:16:37;;;;;;;9.18;4.15;;;;;;;24.37;62.19;100740.78;10302314;28;20063;-80
2023/09/24 07:21:37;;;;;;;12.38;3.85;;;;;;;24.58;61.33;100739.19;10288244;28;20065;-80
2023/09/24 07:26:38;;;;;;;11.27;4.57;;;;;;;24.71;61.08;100732.59;10330822;28;20050;-80
2023/09/24 07:31:40;;;;;;;20.33;4.00;;;;;;;24.39;60.46;100596.63;10332149;28;20077;-83
2023/09/24 07:36:44;;;;;;;12.40;3.70;;;;;;;25.29;58.90;100673.19;10314238;28;20137;-80
2023/09/24 07:41:45;;;;;;;14.48;4.05;;;;;;;24.91;57.95;100606.19;10292067;28;20046;-79
2023/09/24 07:46:48;;;;;;;13.55;3.88;;;;;;;25.63;57.34;100717.25;10292907;28;20054;-76
2023/09/24 07:51:49;;;;;;;15.82;3.97;;;;;;;25.56;56.37;100691.38;10291612;28;20563;-77
2023/09/24 07:56:50;;;;;;;17.33;4.53;;;;;;;25.95;56.00;100763.56;10291455;28;20110;-79
2023/09/24 08:01:50;;;;;;;12.80;3.65;;;;;;;24.85;56.10;100675.13;10291828;28;20589;-77
2023/09/24 08:06:51;;;;;;;14.93;3.85;;;;;;;25.88;53.99;100746.63;10293024;28;20038;-77
2023/09/24 08:11:52;;;;;;;19.25;4.00;;;;;;;25.99;53.71;100663.13;10308918;28;20568;-78
2023/09/24 08:16:53;;;;;;;25.30;4.50;;;;;;;26.71;51.41;100751.53;10299723;28;20196;-78
2023/09/24 08:21:54;;;;;;;19.48;4.18;;;;;;;26.88;51.14;100743.16;10290808;28;20454;-77
2023/09/24 08:26:55;;;;;;;17.10;3.65;;;;;;;26.88;50.08;100717.81;10289639;28;20045;-79
2023/09/24 08:31:56;;;;;;;14.05;3.58;;;;;;;26.69;49.14;100652.06;10289710;28;20054;-78
2023/09/24 08:36:57;;;;;;;21.45;3.92;;;;;;;26.82;48.57;100646.91;10289458;28;20051;-80
2023/09/24 08:42:01;;;;;;;24.13;3.88;;;;;;;27.18;47.89;100666.09;10289653;28;20042;-79
2023/09/24 08:47:02;;;;;;;14.90;3.42;;;;;;;26.34;46.96;100536.41;10294183;28;20056;-81
2023/09/24 08:52:06;;;;;;;22.08;4.25;;;;;;;27.63;45.52;100708.16;10300021;28;20062;-80
2023/09/24 08:57:07;;;;;;;12.50;4.00;;;;;;;27.60;45.46;100684.13;10302811;28;20524;-77
2023/09/24 09:02:08;;;;;;;21.60;4.53;;;;;;;26.65;46.03;100602.72;10295722;28;20047;-82
2023/09/24 09:07:12;;;;;;;17.50;4.03;;;;;;;27.14;45.60;100689.53;10297096;28;20638;-81
2023/09/24 09:12:20;;;;;;;16.77;4.20;;;;;;;27.47;45.61;100688.22;10299876;28;20066;-85
2023/09/24 09:17:21;;;;;;;29.05;4.57;;;;;;;27.06;46.61;100624.59;10296781;28;20051;-83
2023/09/24 09:22:24;;;;;;;24.50;4.40;;;;;;;27.10;45.18;100549.34;10296429;28;20061;-83
2023/09/24 09:27:50;;;;;;;23.17;4.57;;;;;;;27.22;45.19;100606.38;10297942;28;20509;-81
2023/09/24 09:33:25;;;;;;;21.95;4.50;;;;;;;26.32;45.86;100454.16;10304430;28;20059;-81
2023/09/24 09:38:45;;;;;;;;;;;;;;;;;;;;;
2023/09/24 09:44:26;;;;;;;17.63;3.80;;;;;;;28.46;44.84;100657.81;10337589;28;20065;-84
2023/09/24 09:49:47;;;;;;;11.85;3.58;;;;;;;28.51;43.73;100646.84;10313192;28;20047;-84
2023/09/24 09:55:10;;;;;;;22.20;4.05;;;;;;;27.59;44.80;100518.78;10296715;28;20098;-82
2023/09/24 10:00:11;;;;;;;12.45;3.72;;;;;;;28.32;45.01;100629.41;10294949;28;20129;-81
2023/09/24 10:05:16;;;;;;;17.98;3.83;;;;;;;28.54;45.72;100646.28;10298615;28;20153;-84
2023/09/24 10:10:32;;;;;;;13.23;4.13;;;;;;;28.70;46.23;100633.34;10336384;28;20124;-82
2023/09/24 10:15:33;;;;;;;13.48;3.85;;;;;;;27.96;46.59;100605.75;10335945;28;20054;-83
2023/09/24 10:20:49;;;;;;;17.00;3.92;;;;;;;27.80;47.18;100623.28;10297080;28;20054;-82
2023/09/24 10:25:50;;;;;;;31.92;4.40;;;;;;;26.95;47.60;100525.63;10291287;28;20109;-78
2023/09/24 10:31:04;;;;;;;21.15;3.97;;;;;;;27.55;46.63;100602.25;10295735;28;20061;-82
2023/09/24 10:36:21;;;;;;;15.80;3.58;;;;;;;27.12;47.08;100530.81;10295877;28;20503;-89
2023/09/24 10:41:22;;;;;;;17.33;3.78;;;;;;;27.35;46.96;100566.84;10295162;28;20419;-87
2023/09/24 10:46:27;;;;;;;17.25;4.40;;;;;;;27.02;47.39;100514.47;10294610;28;20061;-90
2023/09/24 10:51:28;;;;;;;16.70;4.35;;;;;;;26.99;46.81;100583.19;10295356;28;20070;-88
2023/09/24 10:56:28;;;;;;;31.67;3.88;;;;;;;27.29;46.34;100574.22;10296479;28;20086;-90
2023/09/24 11:01:30;;;;;;;27.90;4.55;;;;;;;27.48;45.14;100508.97;10295001;28;20053;-85
2023/09/24 11:06:31;;;;;;;24.08;4.28;;;;;;;28.10;43.59;100545.91;10294683;28;20625;-91
2023/09/24 11:11:33;;;;;;;25.30;4.93;;;;;;;28.36;43.60;100562.16;10295636;28;20050;-86
2023/09/24 11:16:34;;;;;;;28.42;4.50;;;;;;;28.06;43.48;100513.97;10294592;28;20149;-88
2023/09/24 11:21:35;;;;;;;23.65;4.70;;;;;;;28.11;42.97;100486.66;10294479;28;20054;-92
2023/09/24 11:26:35;;;;;;;22.75;5.20;;;;;;;28.90;42.63;100569.53;10294471;28;20193;-92
2023/09/24 11:31:43;;;;;;;17.48;4.05;;;;;;;28.99;41.74;100564.25;10277069;28;20054;-81
2023/09/24 11:36:55;;;;;;;21.20;4.68;;;;;;;28.37;41.88;100520.09;10292797;28;20142;-89
2023/09/24 11:41:57;;;;;;;21.40;4.33;;;;;;;28.31;43.05;100548.56;10276112;28;20070;-83
2023/09/24 11:46:58;;;;;;;39.90;4.97;;;;;;;28.03;43.63;100503.63;10330372;28;20499;-83
2023/09/24 11:52:07;;;;;;;23.00;4.32;;;;;;;28.29;42.63;100556.22;10330666;28;20062;-81
2023/09/24 11:57:09;;;;;;;37.65;5.00;;;;;;;27.28;44.61;100499.75;10313315;28;20051;-84
2023/09/24 12:02:10;;;;;;;19.15;4.07;;;;;;;27.31;45.21;100528.38;10322037;28;20073;-76
2023/09/24 12:07:11;;;;;;;30.50;4.93;;;;;;;27.75;45.46;100544.09;10316307;28;20090;-77
2023/09/24 12:12:12;;;;;;;22.10;4.63;;;;;;;27.61;44.75;100477.53;10301710;28;20054;-77
2023/09/24 12:17:12;;;;;;;28.13;4.50;;;;;;;27.51;45.10;100511.97;10331782;28;20058;-80
2023/09/24 12:22:13;;;;;;;30.35;5.10;;;;;;;27.04;46.09;100490.47;10330927;28;20054;-81
2023/09/24 12:27:14;;;;;;;22.33;4.05;;;;;;;27.22;46.65;100557.28;10305006;28;20141;-83
2023/09/24 12:32:15;;;;;;;36.22;5.80;;;;;;;26.93;46.64;100467.84;10292380;28;20110;-78
2023/09/24 12:37:16;;;;;;;27.48;4.55;;;;;;;27.51;46.99;100557.53;10339792;28;20057;-77
2023/09/24 12:42:17;;;;;;;23.38;4.40;;;;;;;27.06;46.82;100493.72;10339882;28;20057;-78
2023/09/24 12:47:18;;;;;;;37.85;5.72;;;;;;;26.37;47.55;100416.84;10306547;28;20383;-79
2023/09/24 12:52:19;;;;;;;25.45;4.82;;;;;;;26.21;48.16;100460.69;10332369;28;20514;-82
2023/09/24 12:57:19;;;;;;;33.20;4.72;;;;;;;26.46;48.38;100511.66;10338999;28;20414;-80
2023/09/24 13:02:21;;;;;;;22.00;4.60;;;;;;;26.49;48.17;100533.75;10331943;28;20047;-78
2023/09/24 13:07:21;;;;;;;30.98;5.85;;;;;;;25.59;48.30;100383.47;10299436;28;20058;-82
2023/09/24 13:12:22;;;;;;;32.90;5.28;;;;;;;26.71;47.50;100555.31;10308236;28;20054;-77
2023/09/24 13:17:23;;;;;;;27.98;5.05;;;;;;;26.53;47.60;100572.19;10311323;28;20124;-77
2023/09/24 13:22:24;;;;;;;27.15;4.80;;;;;;;25.95;48.30;100515.88;10338232;28;20430;-79
2023/09/24 13:27:25;;;;;;;37.17;5.28;;;;;;;26.28;47.71;100572.91;10310739;28;20050;-81
2023/09/24 13:32:26;;;;;;;36.13;5.60;;;;;;;25.88;47.36;100518.03;10297131;28;20105;-79
2023/09/24 13:37:26;;;;;;;26.20;5.18;;;;;;;26.07;47.36;100572.81;10295101;28;20054;-79
2023/09/24 13:42:27;;;;;;;34.45;5.13;;;;;;;26.02;47.23;100575.50;10318359;28;20047;-76
2023/09/24 13:47:28;;;;;;;38.45;5.75;;;;;;;25.89;46.97;100573.28;10337118;28;20046;-77
2023/09/24 13:52:29;;;;;;;43.85;6.70;;;;;;;25.64;48.25;100554.88;10337315;28;20042;-81
2023/09/24 13:57:30;;;;;;;36.90;5.88;;;;;;;25.25;48.27;100517.09;10337418;28;20169;-80
2023/09/24 14:02:31;;;;;;;41.22;6.55;;;;;;;25.55;48.78;100599.94;10317314;28;20043;-80
2023/09/24 14:07:31;;;;;;;48.08;6.00;;;;;;;25.03;48.82;100542.41;10296350;28;20047;-79
2023/09/24 14:12:32;;;;;;;46.28;7.10;;;;;;;24.91;49.04;100546.41;10295854;28;20053;-78
2023/09/24 14:17:33;;;;;;;60.88;6.53;;;;;;;24.45;49.54;100499.78;10305842;28;20093;-80
2023/09/24 14:22:34;;;;;;;40.38;5.70;;;;;;;24.87;50.91;100603.16;10295119;28;20066;-79
2023/09/24 14:27:35;;;;;;;37.30;6.13;;;;;;;24.71;51.44;100612.22;10295716;28;20055;-81
2023/09/24 14:32:36;;;;;;;17.17;4.90;;;;;;;24.54;53.28;100628.63;10294880;28;20056;-79
2023/09/24 14:37:36;;;;;;;28.98;5.15;;;;;;;24.00;53.83;100560.59;10294898;28;20105;-81
2023/09/24 14:42:37;;;;;;;36.15;5.93;;;;;;;23.84;55.21;100559.56;10294922;28;20082;-81
2023/09/24 14:47:41;;;;;;;31.83;5.15;;;;;;;23.63;56.28;100553.84;10311521;28;20047;-79
2023/09/24 14:52:42;;;;;;;37.20;5.72;;;;;;;23.98;57.06;100615.09;10308855;28;20117;-78
2023/09/24 14:57:42;;;;;;;35.42;5.40;;;;;;;23.52;57.68;100567.50;10327455;28;20101;-81
2023/09/24 15:02:43;;;;;;;19.25;3.92;;;;;;;23.27;58.70;100546.22;10310405;28;20062;-78
2023/09/24 15:07:44;;;;;;;38.92;5.88;;;;;;;23.45;58.89;100595.59;10293794;28;20050;-78
2023/09/24 15:12:45;;;;;;;28.90;4.53;;;;;;;23.51;58.95;100634.44;10293853;28;20561;-78
2023/09/24 15:17:46;;;;;;;38.97;5.25;;;;;;;23.19;58.69;100580.81;10312115;28;20084;-80
2023/09/24 15:22:47;;;;;;;29.75;5.40;;;;;;;23.06;58.52;100569.44;10316406;28;20058;-77
2023/09/24 15:27:47;;;;;;;25.42;4.40;;;;;;;23.13;58.84;100598.03;10332873;28;20050;-82
2023/09/24 15:32:48;;;;;;;33.70;4.63;;;;;;;23.02;58.99;100604.34;10332469;28;20113;-83
2023/09/24 15:37:49;;;;;;;27.15;4.78;;;;;;;22.14;59.70;100502.72;10332629;28;20050;-81
2023/09/24 15:42:50;;;;;;;29.67;5.72;;;;;;;22.36;59.78;100571.41;10315507;28;20140;-79
2023/09/24 15:47:57;;;;;;;34.75;5.13;;;;;;;22.86;61.40;100662.00;10332590;28;20046;-80
2023/09/24 15:52:58;;;;;;;48.97;6.05;;;;;;;22.72;60.84;100648.72;10319949;28;20462;-88
2023/09/24 15:57:59;;;;;;;38.17;5.47;;;;;;;22.64;61.29;100670.75;10298323;28;20106;-93
2023/09/24 16:03:03;;;;;;;35.35;5.05;;;;;;;22.67;61.84;100697.34;10304852;28;20084;-85
2023/09/24 16:08:04;;;;;;;24.85;5.13;;;;;;;22.16;61.90;100631.28;10296165;28;20062;-95
2023/09/24 16:13:05;;;;;;;24.38;4.28;;;;;;;22.34;62.18;100692.59;10325241;28;20069;-82
2023/09/24 16:18:06;;;;;;;28.65;4.43;;;;;;;22.25;62.76;100705.66;10258239;28;20051;-80
2023/09/24 16:23:07;;;;;;;24.42;4.20;;;;;;;21.95;63.60;100707.66;10273523;28;20081;-81
2023/09/24 16:28:08;;;;;;;26.95;4.38;;;;;;;21.62;64.19;100674.69;10299073;28;20061;-80
2023/09/24 16:33:09;;;;;;;20.98;3.80;;;;;;;21.37;64.74;100666.78;10291794;28;20406;-78
2023/09/24 16:38:09;;;;;;;25.20;3.65;;;;;;;21.62;64.98;100725.22;10291545;28;20051;-77
2023/09/24 16:43:10;;;;;;;19.13;3.67;;;;;;;21.23;66.04;100692.31;10325890;28;20447;-80
2023/09/24 16:48:11;;;;;;;22.98;3.60;;;;;;;21.10;66.69;100703.31;10305940;28;20078;-76
2023/09/24 16:53:13;;;;;;;18.90;4.45;;;;;;;21.17;67.78;100733.75;10298482;28;20057;-73
2023/09/24 16:58:14;;;;;;;10.35;3.58;;;;;;;20.93;68.14;100714.72;10331382;28;20046;-77
2023/09/24 17:03:15;;;;;;;18.20;2.78;;;;;;;20.93;69.15;100725.53;10331028;28;20053;-76
2023/09/24 17:08:15;;;;;;;19.73;3.40;;;;;;;20.46;69.19;100662.31;10319294;28;20458;-76
2023/09/24 17:13:16;;;;;;;21.58;3.55;;;;;;;20.75;69.84;100720.97;10316153;28;20495;-76
2023/09/24 17:18:18;;;;;;;19.73;3.42;;;;;;;19.82;70.98;100583.56;10307699;28;20533;-76
2023/09/24 17:23:18;;;;;;;11.68;2.95;;;;;;;20.41;71.89;100698.09;10299971;28;20059;-78
2023/09/24 17:28:20;;;;;;;17.63;3.22;;;;;;;20.31;72.41;100703.16;10297059;28;20101;-77
2023/09/24 17:33:22;;;;;;;17.17;3.45;;;;;;;20.20;73.40;100703.91;10297286;28;20503;-76
2023/09/24 17:38:22;;;;;;;16.77;3.22;;;;;;;19.91;74.46;100673.88;10280139;28;20049;-77
2023/09/24 17:43:23;;;;;;;13.75;3.28;;;;;;;19.96;75.39;100694.81;10306030;28;20054;-77
2023/09/24 17:48:25;;;;;;;12.50;2.92;;;;;;;20.13;75.75;100736.31;10297429;28;20063;-77
2023/09/24 17:53:25;;;;;;;14.60;3.13;;;;;;;19.12;75.78;100578.34;10297677;28;20114;-78
2023/09/24 17:58:27;;;;;;;14.00;2.92;;;;;;;20.00;76.58;100731.88;10295822;28;20109;-75
2023/09/24 18:03:28;;;;;;;10.57;2.70;;;;;;;19.79;77.07;100708.00;10304506;28;20145;-76
2023/09/24 18:08:31;;;;;;;6.38;2.65;;;;;;;19.83;77.69;100741.56;10298016;28;20130;-76
2023/09/24 18:13:32;;;;;;;9.27;3.10;;;;;;;19.38;78.10;100679.66;10295977;28;20446;-78
2023/09/24 18:18:34;;;;;;;8.68;2.83;;;;;;;19.52;78.47;100708.16;10294883;28;20499;-77
2023/09/24 18:23:36;;;;;;;10.20;2.92;;;;;;;19.51;79.11;100722.69;10294621;28;20062;-76
2023/09/24 18:28:36;;;;;;;12.90;2.90;;;;;;;19.55;79.82;100742.75;10293858;28;20062;-76
2023/09/24 18:33:38;;;;;;;12.45;3.05;;;;;;;19.51;79.90;100744.25;10304760;28;20046;-77
2023/09/24 18:38:39;;;;;;;8.07;2.70;;;;;;;18.95;80.35;100666.88;10294731;28;20388;-77
2023/09/24 18:43:39;;;;;;;13.00;3.17;;;;;;;19.36;80.66;100744.53;10294270;28;20054;-77
2023/09/24 18:48:40;;;;;;;11.73;3.00;;;;;;;19.25;81.23;100739.00;10293947;28;20057;-76
2023/09/24 18:53:41;;;;;;;8.95;2.65;;;;;;;19.24;81.23;100748.97;10293769;28;20047;-76
2023/09/24 18:58:42;;;;;;;7.25;2.70;;;;;;;18.97;81.60;100715.97;10294654;28;20081;-77
2023/09/24 19:03:43;;;;;;;7.60;2.85;;;;;;;19.04;81.71;100740.97;10293880;28;20110;-77
2023/09/24 19:08:43;;;;;;;9.05;3.33;;;;;;;19.05;82.15;100760.63;10293077;28;20138;-77
2023/09/24 19:13:44;;;;;;;14.57;3.35;;;;;;;18.87;82.54;100737.94;10293516;28;20059;-76
2023/09/24 19:18:45;;;;;;;10.70;3.10;;;;;;;18.94;82.83;100764.84;10301561;28;20161;-76
2023/09/24 19:23:46;;;;;;;11.50;3.13;;;;;;;18.55;83.10;100704.69;10296908;28;20128;-76
2023/09/24 19:28:47;;;;;;;11.48;3.58;;;;;;;18.82;83.60;100755.78;10301438;28;20102;-77
2023/09/24 19:33:48;;;;;;;13.27;3.38;;;;;;;18.63;83.84;100742.13;10275725;28;20046;-76
2023/09/24 19:38:49;;;;;;;15.98;3.80;;;;;;;18.73;84.00;100762.41;10293350;28;20046;-77
2023/09/24 19:43:49;;;;;;;13.45;3.83;;;;;;;18.50;84.25;100736.78;10293251;28;20530;-77
2023/09/24 19:48:50;;;;;;;12.93;3.72;;;;;;;18.62;84.55;100753.94;10291948;28;20141;-77
2023/09/24 19:53:51;;;;;;;8.38;3.38;;;;;;;18.33;84.52;100706.81;10292331;28;20441;-77
2023/09/24 19:58:53;;;;;;;10.65;3.28;;;;;;;18.48;84.73;100738.84;10292318;28;20043;-77
2023/09/24 20:03:56;;;;;;;8.05;3.38;;;;;;;18.32;84.94;100725.84;10291627;28;20046;-77
2023/09/24 20:09:01;;;;;;;10.38;3.55;;;;;;;17.77;85.00;100642.78;10291958;28;20047;-77
2023/09/24 20:14:04;;;;;;;8.82;3.63;;;;;;;18.43;85.61;100768.25;10310139;28;20057;-77
2023/09/24 20:19:07;;;;;;;13.95;3.65;;;;;;;17.91;85.48;100700.84;10331772;28;20057;-77
2023/09/24 20:24:10;;;;;;;10.90;3.58;;;;;;;18.35;85.76;100771.16;10314270;28;20467;-78
2023/09/24 20:29:11;;;;;;;8.27;3.78;;;;;;;17.97;85.65;100720.72;10332626;28;20054;-77
2023/09/24 20:34:13;;;;;;;17.30;3.30;;;;;;;18.06;85.76;100743.66;10332081;28;20061;-77
2023/09/24 20:39:14;;;;;;;10.85;3.63;;;;;;;18.06;85.99;100735.59;10331592;28;20050;-78
2023/09/24 20:44:15;;;;;;;7.82;3.33;;;;;;;18.08;86.14;100746.16;10314616;28;20057;-77
2023/09/24 20:49:16;;;;;;;6.93;3.55;;;;;;;18.07;86.73;100758.78;10339814;28;20092;-77
2023/09/24 20:54:16;;;;;;;9.10;3.58;;;;;;;17.96;86.92;100744.06;10339381;28;20050;-77
2023/09/24 20:59:25;;;;;;;14.05;3.75;;;;;;;17.58;nan;100687.38;10338418;28;20054;-77
2023/09/24 21:04:26;;;;;;;10.05;3.50;;;;;;;17.80;87.29;100728.38;10338835;28;20140;-77
2023/09/24 21:09:27;;;;;;;13.77;3.60;;;;;;;17.63;87.60;100694.84;10338730;28;20046;-77
2023/09/24 21:14:28;;;;;;;11.57;3.75;;;;;;;17.96;87.85;100745.94;10338310;28;20050;-77
2023/09/24 21:19:29;;;;;;;7.45;3.38;;;;;;;17.96;88.30;100748.63;10338344;28;20498;-77
2023/09/24 21:24:30;;;;;;;7.90;3.45;;;;;;;17.97;88.51;100750.28;10322626;28;20137;-76
2023/09/24 21:29:30;;;;;;;7.72;3.47;;;;;;;17.82;88.56;100728.16;10337971;28;20058;-77
2023/09/24 21:34:31;;;;;;;9.05;3.13;;;;;;;17.43;88.64;100659.91;10336081;28;20462;-79
2023/09/24 21:39:32;;;;;;;9.35;3.20;;;;;;;17.87;88.71;100731.88;10338266;28;20085;-77
2023/09/24 21:44:33;;;;;;;9.27;3.40;;;;;;;17.28;88.46;100631.38;10337280;28;20131;-77
2023/09/24 21:49:33;;;;;;;10.23;3.55;;;;;;;17.81;88.53;100716.59;10337021;28;20046;-77
2023/09/24 21:54:34;;;;;;;7.88;3.40;;;;;;;17.94;88.66;100737.25;10336614;28;20505;-78
2023/09/24 21:59:35;;;;;;;7.07;3.10;;;;;;;17.91;88.36;100748.41;10336430;28;20434;-77
2023/09/24 22:04:37;;;;;;;7.97;3.13;;;;;;;17.73;88.16;100717.56;10337709;28;20137;-77
2023/09/24 22:09:38;;;;;;;11.32;3.13;;;;;;;17.49;88.10;100692.13;10335873;28;20053;-77
2023/09/24 22:14:39;;;;;;;8.35;3.10;;;;;;;17.72;88.10;100734.72;10336021;28;20058;-76
2023/09/24 22:19:39;;;;;;;12.50;2.95;;;;;;;17.72;87.90;100750.84;10337217;28;20054;-77
2023/09/24 22:24:40;;;;;;;10.30;3.50;;;;;;;17.77;88.01;100766.38;10336041;28;20525;-77
2023/09/24 22:29:42;;;;;;;9.40;3.42;;;;;;;17.52;88.12;100731.19;10318243;28;20054;-77
2023/09/24 22:34:43;;;;;;;28.67;3.88;;;;;;;17.23;87.95;100694.75;10328952;28;20059;-77
2023/09/24 22:39:44;;;;;;;6.63;3.03;;;;;;;17.53;88.20;100748.97;10261648;28;20090;-77
2023/09/24 22:44:45;;;;;;;9.00;2.72;;;;;;;17.54;88.17;100764.06;10254832;29;20087;-77
2023/09/24 22:49:45;;;;;;;6.80;3.25;;;;;;;17.05;88.48;100684.59;10254793;29;20050;-77
2023/09/24 22:54:46;;;;;;;9.77;3.00;;;;;;;16.64;89.20;100627.28;10253848;29;20534;-77
2023/09/24 22:59:47;;;;;;;14.93;2.97;;;;;;;16.95;89.22;100681.47;10252881;29;20138;-79